createdAt,value
2022-08-21T00:00:53.038Z,1015.80
2022-08-21T00:01:53.513Z,1015.77
2022-08-21T00:02:53.911Z,1015.77
2022-08-21T00:03:54.084Z,1015.76
2022-08-21T00:04:57.854Z,1015.73
2022-08-21T00:05:54.873Z,1015.72
2022-08-21T00:06:55.196Z,1015.71
2022-08-21T00:07:55.572Z,1015.70
2022-08-21T00:08:55.944Z,1015.69
2022-08-21T00:09:56.303Z,1015.67
2022-08-21T00:10:56.680Z,1015.70
2022-08-21T00:11:57.039Z,1015.64
2022-08-21T00:12:57.548Z,1015.65
2022-08-21T00:13:57.781Z,1015.69
2022-08-21T00:14:58.337Z,1015.64
2022-08-21T00:15:58.495Z,1015.65
2022-08-21T00:17:00.155Z,1015.66
2022-08-21T00:17:59.234Z,1015.63
2022-08-21T00:18:59.579Z,1015.60
2022-08-21T00:19:59.937Z,1015.63
2022-08-21T00:21:00.296Z,1015.61
2022-08-21T00:22:00.660Z,1015.62
2022-08-21T00:23:01.045Z,1015.60
2022-08-21T00:24:01.391Z,1015.60
2022-08-21T00:25:01.775Z,1015.56
2022-08-21T00:26:02.124Z,1015.62
2022-08-21T00:27:02.498Z,1015.59
2022-08-21T00:28:02.858Z,1015.58
2022-08-21T00:29:03.218Z,1015.57
2022-08-21T00:30:03.578Z,1015.53
2022-08-21T00:31:03.934Z,1015.58
2022-08-21T00:32:04.293Z,1015.58
2022-08-21T00:33:04.664Z,1015.56
2022-08-21T00:34:05.027Z,1015.55
2022-08-21T00:35:05.390Z,1015.55
2022-08-21T00:36:05.761Z,1015.60
2022-08-21T00:37:06.119Z,1015.57
2022-08-21T00:38:06.499Z,1015.51
2022-08-21T00:39:06.846Z,1015.55
2022-08-21T00:40:07.222Z,1015.53
2022-08-21T00:41:36.891Z,1015.50
2022-08-21T00:42:08.047Z,1015.52
2022-08-21T00:43:08.308Z,1015.50
2022-08-21T00:44:08.659Z,1015.45
2022-08-21T00:45:09.057Z,1015.44
2022-08-21T00:46:09.370Z,1015.46
2022-08-21T00:47:09.731Z,1015.45
2022-08-21T00:48:10.150Z,1015.49
2022-08-21T00:49:10.446Z,1015.53
2022-08-21T00:50:10.802Z,1015.49
2022-08-21T00:51:11.194Z,1015.54
2022-08-21T00:52:11.514Z,1015.54
2022-08-21T00:53:11.906Z,1015.53
2022-08-21T00:54:18.417Z,1015.52
2022-08-21T00:55:12.590Z,1015.54
2022-08-21T00:56:12.968Z,1015.51
2022-08-21T00:57:13.327Z,1015.53
2022-08-21T00:58:13.742Z,1015.54
2022-08-21T00:59:14.060Z,1015.54
2022-08-21T01:00:14.430Z,1015.51
2022-08-21T01:01:14.895Z,1015.52
2022-08-21T01:02:15.160Z,1015.52
2022-08-21T01:03:15.568Z,1015.53
2022-08-21T01:04:15.890Z,1015.58
2022-08-21T01:05:16.256Z,1015.55
2022-08-21T01:06:16.599Z,1015.55
2022-08-21T01:07:16.976Z,1015.56
2022-08-21T01:08:17.337Z,1015.55
2022-08-21T01:09:17.687Z,1015.54
2022-08-21T01:10:23.719Z,1015.56
2022-08-21T01:11:18.425Z,1015.59
2022-08-21T01:12:18.766Z,1015.58
2022-08-21T01:13:19.156Z,1015.61
2022-08-21T01:14:19.509Z,1015.61
2022-08-21T01:15:19.870Z,1015.60
2022-08-21T01:16:20.229Z,1015.61
2022-08-21T01:17:20.618Z,1015.62
2022-08-21T01:18:21.010Z,1015.62
2022-08-21T01:19:21.335Z,1015.59
2022-08-21T01:20:21.698Z,1015.61
2022-08-21T01:21:22.076Z,1015.60
2022-08-21T01:22:22.444Z,1015.66
2022-08-21T01:23:22.827Z,1015.60
2022-08-21T01:24:23.322Z,1015.60
2022-08-21T01:25:23.521Z,1015.60
2022-08-21T01:26:23.874Z,1015.60
2022-08-21T01:27:24.239Z,1015.59
2022-08-21T01:28:24.603Z,1015.56
2022-08-21T01:29:24.960Z,1015.63
2022-08-21T01:30:25.314Z,1015.59
2022-08-21T01:31:26.132Z,1015.55
2022-08-21T01:32:26.027Z,1015.58
2022-08-21T01:33:26.397Z,1015.62
2022-08-21T01:34:26.753Z,1015.58
2022-08-21T01:35:27.135Z,1015.59
2022-08-21T01:36:27.485Z,1015.59
2022-08-21T01:37:27.841Z,1015.55
2022-08-21T01:38:28.222Z,1015.56
2022-08-21T01:39:28.573Z,1015.54
2022-08-21T01:40:28.964Z,1015.55
2022-08-21T01:41:29.308Z,1015.57
2022-08-21T01:42:29.695Z,1015.55
2022-08-21T01:43:34.004Z,1015.55
2022-08-21T01:44:30.409Z,1015.55
2022-08-21T01:45:30.763Z,1015.53
2022-08-21T01:46:31.138Z,1015.49
2022-08-21T01:47:31.493Z,1015.51
2022-08-21T01:48:31.906Z,1015.45
2022-08-21T01:49:32.219Z,1015.48
2022-08-21T01:50:32.576Z,1015.44
2022-08-21T01:51:32.938Z,1015.51
2022-08-21T01:52:33.320Z,1015.49
2022-08-21T01:53:33.754Z,1015.47
2022-08-21T01:54:34.008Z,1015.47
2022-08-21T01:55:34.351Z,1015.43
2022-08-21T01:56:34.743Z,1015.45
2022-08-21T01:57:35.055Z,1015.45
2022-08-21T01:58:35.476Z,1015.43
2022-08-21T01:59:35.775Z,1015.42
2022-08-21T02:00:36.145Z,1015.42
2022-08-21T02:01:36.491Z,1015.43
2022-08-21T02:02:36.849Z,1015.38
2022-08-21T02:03:37.224Z,1015.40
2022-08-21T02:04:37.566Z,1015.36
2022-08-21T02:05:37.925Z,1015.35
2022-08-21T02:06:38.279Z,1015.33
2022-08-21T02:07:38.637Z,1015.36
2022-08-21T02:08:39.022Z,1015.34
2022-08-21T02:09:40.117Z,1015.35
2022-08-21T02:10:39.753Z,1015.33
2022-08-21T02:11:40.123Z,1015.41
2022-08-21T02:12:40.483Z,1015.39
2022-08-21T02:13:40.871Z,1015.33
2022-08-21T02:14:41.219Z,1015.35
2022-08-21T02:15:41.583Z,1015.33
2022-08-21T02:16:41.937Z,1015.32
2022-08-21T02:17:42.315Z,1015.33
2022-08-21T02:18:42.671Z,1015.30
2022-08-21T02:19:43.055Z,1015.33
2022-08-21T02:20:43.379Z,1015.37
2022-08-21T02:21:43.735Z,1015.34
2022-08-21T02:22:44.096Z,1015.36
2022-08-21T02:23:44.486Z,1015.32
2022-08-21T02:24:54.801Z,1015.32
2022-08-21T02:25:45.158Z,1015.35
2022-08-21T02:26:45.513Z,1015.35
2022-08-21T02:27:45.907Z,1015.36
2022-08-21T02:28:46.324Z,1015.32
2022-08-21T02:29:46.607Z,1015.32
2022-08-21T02:30:46.960Z,1015.35
2022-08-21T02:31:47.366Z,1015.35
2022-08-21T02:32:47.715Z,1015.30
2022-08-21T02:33:48.138Z,1015.31
2022-08-21T02:34:48.452Z,1015.28
2022-08-21T02:35:48.811Z,1015.29
2022-08-21T02:36:59.326Z,1015.29
2022-08-21T02:37:49.523Z,1015.31
2022-08-21T02:38:49.891Z,1015.28
2022-08-21T02:39:50.291Z,1015.26
2022-08-21T02:40:51.187Z,1015.25
2022-08-21T02:41:50.977Z,1015.25
2022-08-21T02:42:51.409Z,1015.26
2022-08-21T02:43:51.714Z,1015.22
2022-08-21T02:44:52.066Z,1015.26
2022-08-21T02:45:52.439Z,1015.26
2022-08-21T02:46:52.776Z,1015.28
2022-08-21T02:47:53.172Z,1015.23
2022-08-21T02:48:53.533Z,1015.29
2022-08-21T02:49:53.841Z,1015.18
2022-08-21T02:50:54.228Z,1015.23
2022-08-21T02:51:54.555Z,1015.23
2022-08-21T02:52:55.311Z,1015.26
2022-08-21T02:53:55.365Z,1015.19
2022-08-21T02:54:55.656Z,1015.22
2022-08-21T02:55:56.030Z,1015.21
2022-08-21T02:56:56.406Z,1015.25
2022-08-21T02:57:56.739Z,1015.22
2022-08-21T02:59:05.829Z,1015.21
2022-08-21T02:59:57.440Z,1015.21
2022-08-21T03:00:57.825Z,1015.21
2022-08-21T03:01:58.262Z,1015.17
2022-08-21T03:02:58.857Z,1015.22
2022-08-21T03:03:58.910Z,1015.21
2022-08-21T03:04:59.265Z,1015.22
2022-08-21T03:05:59.622Z,1015.21
2022-08-21T03:07:00.039Z,1015.21
2022-08-21T03:08:00.349Z,1015.22
2022-08-21T03:09:00.732Z,1015.21
2022-08-21T03:10:01.084Z,1015.22
2022-08-21T03:11:01.450Z,1015.19
2022-08-21T03:12:01.809Z,1015.20
2022-08-21T03:13:02.214Z,1015.17
2022-08-21T03:14:02.564Z,1015.16
2022-08-21T03:15:02.927Z,1015.12
2022-08-21T03:16:04.184Z,1015.14
2022-08-21T03:17:03.683Z,1015.10
2022-08-21T03:18:04.027Z,1015.13
2022-08-21T03:19:04.399Z,1015.09
2022-08-21T03:20:04.749Z,1015.08
2022-08-21T03:21:05.171Z,1015.07
2022-08-21T03:22:05.518Z,1015.07
2022-08-21T03:23:12.458Z,1015.07
2022-08-21T03:24:06.247Z,1015.04
2022-08-21T03:25:06.783Z,1015.06
2022-08-21T03:26:06.941Z,1015.03
2022-08-21T03:27:09.302Z,1015.02
2022-08-21T03:28:07.659Z,1015.03
2022-08-21T03:29:08.095Z,1015.05
2022-08-21T03:30:08.420Z,1015.06
2022-08-21T03:31:08.795Z,1015.00
2022-08-21T03:32:09.185Z,1015.07
2022-08-21T03:33:12.961Z,1015.01
2022-08-21T03:34:09.951Z,1015.08
2022-08-21T03:35:10.290Z,1015.03
2022-08-21T03:36:10.518Z,1014.98
2022-08-21T03:37:10.803Z,1014.99
2022-08-21T03:38:10.970Z,1014.97
2022-08-21T03:39:11.186Z,1014.95
2022-08-21T03:40:11.564Z,1014.97
2022-08-21T03:41:11.721Z,1014.95
2022-08-21T03:42:11.982Z,1014.95
2022-08-21T03:43:12.149Z,1014.97
2022-08-21T03:44:12.347Z,1014.98
2022-08-21T03:45:12.498Z,1014.91
2022-08-21T03:46:12.697Z,1014.92
2022-08-21T03:47:12.851Z,1014.96
2022-08-21T03:48:13.337Z,1015.01
2022-08-21T03:49:13.414Z,1015.01
2022-08-21T03:50:13.595Z,1015.01
2022-08-21T03:51:13.892Z,1015.02
2022-08-21T03:52:14.177Z,1015.03
2022-08-21T03:53:17.552Z,1015.06
2022-08-21T03:54:14.689Z,1015.09
2022-08-21T03:55:14.842Z,1015.04
2022-08-21T03:56:15.136Z,1015.06
2022-08-21T03:57:15.328Z,1015.04
2022-08-21T03:58:16.696Z,1015.11
2022-08-21T03:59:15.814Z,1015.05
2022-08-21T04:00:15.948Z,1015.11
2022-08-21T04:01:16.225Z,1015.06
2022-08-21T04:02:16.325Z,1015.10
2022-08-21T04:03:16.492Z,1015.11
2022-08-21T04:04:16.838Z,1015.06
2022-08-21T04:05:16.962Z,1015.05
2022-08-21T04:06:17.262Z,1015.08
2022-08-21T04:07:17.463Z,1015.13
2022-08-21T04:08:17.721Z,1015.10
2022-08-21T04:09:17.922Z,1015.07
2022-08-21T04:10:18.109Z,1015.07
2022-08-21T04:11:18.279Z,1015.08
2022-08-21T04:12:18.455Z,1015.13
2022-08-21T04:13:18.617Z,1015.04
2022-08-21T04:14:18.820Z,1015.09
2022-08-21T04:15:19.001Z,1015.07
2022-08-21T04:16:19.166Z,1015.03
2022-08-21T04:17:19.356Z,1015.08
2022-08-21T04:18:19.509Z,1015.05
2022-08-21T04:19:19.712Z,1015.08
2022-08-21T04:20:19.868Z,1015.11
2022-08-21T04:21:20.051Z,1015.11
2022-08-21T04:22:20.251Z,1015.11
2022-08-21T04:23:23.734Z,1015.13
2022-08-21T04:24:20.592Z,1015.14
2022-08-21T04:25:20.760Z,1015.18
2022-08-21T04:26:20.982Z,1015.16
2022-08-21T04:27:21.098Z,1015.15
2022-08-21T04:28:21.276Z,1015.17
2022-08-21T04:29:21.473Z,1015.17
2022-08-21T04:30:21.635Z,1015.20
2022-08-21T04:31:21.932Z,1015.19
2022-08-21T04:32:22.118Z,1015.18
2022-08-21T04:33:22.313Z,1015.18
2022-08-21T04:34:22.496Z,1015.19
2022-08-21T04:35:22.687Z,1015.17
2022-08-21T04:36:22.838Z,1015.19
2022-08-21T04:37:23.134Z,1015.22
2022-08-21T04:38:23.290Z,1015.22
2022-08-21T04:39:23.486Z,1015.21
2022-08-21T04:40:23.689Z,1015.17
2022-08-21T04:41:28.113Z,1015.21
2022-08-21T04:42:24.041Z,1015.19
2022-08-21T04:43:24.158Z,1015.17
2022-08-21T04:44:24.381Z,1015.14
2022-08-21T04:45:24.509Z,1015.16
2022-08-21T04:46:24.722Z,1015.16
2022-08-21T04:47:24.898Z,1015.19
2022-08-21T04:48:25.181Z,1015.25
2022-08-21T04:49:25.285Z,1015.21
2022-08-21T04:50:25.439Z,1015.22
2022-08-21T04:51:25.620Z,1015.20
2022-08-21T04:52:25.798Z,1015.21
2022-08-21T04:53:26.130Z,1015.19
2022-08-21T04:54:26.434Z,1015.16
2022-08-21T04:55:26.618Z,1015.20
2022-08-21T04:56:26.767Z,1015.17
2022-08-21T04:57:48.177Z,1015.19
2022-08-21T04:58:27.121Z,1015.18
2022-08-21T04:59:27.339Z,1015.22
2022-08-21T05:00:27.506Z,1015.22
2022-08-21T05:01:27.786Z,1015.20
2022-08-21T05:02:27.912Z,1015.18
2022-08-21T05:03:28.099Z,1015.25
2022-08-21T05:04:28.290Z,1015.20
2022-08-21T05:05:28.489Z,1015.19
2022-08-21T05:06:28.675Z,1015.21
2022-08-21T05:07:41.892Z,1015.20
2022-08-21T05:08:29.052Z,1015.17
2022-08-21T05:09:29.265Z,1015.15
2022-08-21T05:10:29.468Z,1015.21
2022-08-21T05:11:29.611Z,1015.15
2022-08-21T05:12:29.835Z,1015.22
2022-08-21T05:13:29.981Z,1015.21
2022-08-21T05:14:30.181Z,1015.20
2022-08-21T05:15:30.337Z,1015.15
2022-08-21T05:16:37.219Z,1015.18
2022-08-21T05:17:30.727Z,1015.15
2022-08-21T05:18:30.921Z,1015.20
2022-08-21T05:19:31.081Z,1015.18
2022-08-21T05:20:31.240Z,1015.22
2022-08-21T05:21:31.459Z,1015.20
2022-08-21T05:22:31.636Z,1015.21
2022-08-21T05:23:31.788Z,1015.24
2022-08-21T05:24:32.013Z,1015.20
2022-08-21T05:25:32.173Z,1015.21
2022-08-21T05:26:32.353Z,1015.27
2022-08-21T05:27:32.569Z,1015.27
2022-08-21T05:28:32.754Z,1015.30
2022-08-21T05:29:32.970Z,1015.34
2022-08-21T05:30:33.135Z,1015.40
2022-08-21T05:31:33.343Z,1015.38
2022-08-21T05:32:33.510Z,1015.32
2022-08-21T05:33:33.694Z,1015.34
2022-08-21T05:34:33.876Z,1015.36
2022-08-21T05:35:34.070Z,1015.35
2022-08-21T05:36:34.298Z,1015.36
2022-08-21T05:37:34.460Z,1015.42
2022-08-21T05:38:34.653Z,1015.44
2022-08-21T05:40:21.190Z,1015.42
2022-08-21T05:40:35.087Z,1015.45
2022-08-21T05:41:35.253Z,1015.46
2022-08-21T05:42:35.418Z,1015.50
2022-08-21T05:43:35.612Z,1015.51
2022-08-21T05:44:35.818Z,1015.49
2022-08-21T05:45:42.533Z,1015.45
2022-08-21T05:46:36.169Z,1015.43
2022-08-21T05:47:36.370Z,1015.44
2022-08-21T05:48:36.563Z,1015.45
2022-08-21T05:49:36.800Z,1015.47
2022-08-21T05:50:36.914Z,1015.46
2022-08-21T05:51:37.109Z,1015.45
2022-08-21T05:52:37.274Z,1015.46
2022-08-21T05:53:37.533Z,1015.45
2022-08-21T05:54:37.742Z,1015.46
2022-08-21T05:55:42.764Z,1015.46
2022-08-21T05:56:38.066Z,1015.40
2022-08-21T05:57:38.265Z,1015.45
2022-08-21T05:58:38.442Z,1015.42
2022-08-21T05:59:38.677Z,1015.47
2022-08-21T06:00:38.828Z,1015.45
2022-08-21T06:01:39.104Z,1015.42
2022-08-21T06:02:39.235Z,1015.41
2022-08-21T06:03:39.394Z,1015.45
2022-08-21T06:04:39.574Z,1015.48
2022-08-21T06:05:39.729Z,1015.44
2022-08-21T06:06:39.922Z,1015.42
2022-08-21T06:07:40.112Z,1015.39
2022-08-21T06:08:40.338Z,1015.32
2022-08-21T06:09:40.511Z,1015.32
2022-08-21T06:10:40.667Z,1015.31
2022-08-21T06:11:40.860Z,1015.32
2022-08-21T06:12:42.490Z,1015.35
2022-08-21T06:13:41.250Z,1015.36
2022-08-21T06:14:41.465Z,1015.36
2022-08-21T06:15:41.655Z,1015.39
2022-08-21T06:16:41.856Z,1015.31
2022-08-21T06:17:42.053Z,1015.34
2022-08-21T06:18:42.237Z,1015.41
2022-08-21T06:19:42.443Z,1015.37
2022-08-21T06:20:42.594Z,1015.31
2022-08-21T06:21:42.798Z,1015.31
2022-08-21T06:22:43.040Z,1015.29
2022-08-21T06:23:43.138Z,1015.29
2022-08-21T06:24:43.327Z,1015.32
2022-08-21T06:25:43.492Z,1015.26
2022-08-21T06:26:43.690Z,1015.30
2022-08-21T06:27:43.885Z,1015.30
2022-08-21T06:28:44.086Z,1015.28
2022-08-21T06:29:44.871Z,1015.27
2022-08-21T06:30:44.470Z,1015.26
2022-08-21T06:31:44.672Z,1015.26
2022-08-21T06:32:44.849Z,1015.27
2022-08-21T06:33:45.059Z,1015.24
2022-08-21T06:34:45.237Z,1015.29
2022-08-21T06:35:45.444Z,1015.28
2022-08-21T06:36:45.577Z,1015.22
2022-08-21T06:37:45.810Z,1015.25
2022-08-21T06:38:50.918Z,1015.30
2022-08-21T06:39:46.176Z,1015.24
2022-08-21T06:40:47.667Z,1015.30
2022-08-21T06:41:46.513Z,1015.26
2022-08-21T06:42:46.718Z,1015.25
2022-08-21T06:43:46.990Z,1015.28
2022-08-21T06:44:47.112Z,1015.26
2022-08-21T06:45:47.272Z,1015.29
2022-08-21T06:46:47.605Z,1015.26
2022-08-21T06:47:47.641Z,1015.23
2022-08-21T06:48:47.831Z,1015.21
2022-08-21T06:49:48.076Z,1015.19
2022-08-21T06:50:48.250Z,1015.16
2022-08-21T06:51:48.399Z,1015.18
2022-08-21T06:52:48.607Z,1015.13
2022-08-21T06:53:48.755Z,1015.12
2022-08-21T06:54:48.975Z,1015.12
2022-08-21T06:55:49.125Z,1015.14
2022-08-21T06:56:49.313Z,1015.11
2022-08-21T06:57:51.821Z,1015.12
2022-08-21T06:58:49.718Z,1015.12
2022-08-21T06:59:49.922Z,1015.08
2022-08-21T07:00:50.149Z,1015.11
2022-08-21T07:01:50.365Z,1015.07
2022-08-21T07:02:50.482Z,1015.06
2022-08-21T07:03:50.669Z,1015.09
2022-08-21T07:04:50.901Z,1015.06
2022-08-21T07:05:51.050Z,1015.05
2022-08-21T07:06:51.244Z,1015.06
2022-08-21T07:07:51.435Z,1014.97
2022-08-21T07:08:51.631Z,1014.96
2022-08-21T07:09:51.820Z,1014.95
2022-08-21T07:10:51.974Z,1014.98
2022-08-21T07:11:52.159Z,1014.97
2022-08-21T07:12:59.544Z,1014.95
2022-08-21T07:13:52.520Z,1014.95
2022-08-21T07:14:52.734Z,1014.93
2022-08-21T07:15:52.886Z,1014.97
2022-08-21T07:16:53.088Z,1014.97
2022-08-21T07:17:53.277Z,1014.97
2022-08-21T07:18:53.486Z,1014.96
2022-08-21T07:19:53.689Z,1014.99
2022-08-21T07:20:53.837Z,1014.90
2022-08-21T07:21:54.040Z,1014.94
2022-08-21T07:22:54.241Z,1014.91
2022-08-21T07:23:54.429Z,1014.95
2022-08-21T07:24:54.664Z,1014.96
2022-08-21T07:25:54.827Z,1014.94
2022-08-21T07:26:55.019Z,1014.90
2022-08-21T07:27:55.208Z,1014.90
2022-08-21T07:28:55.392Z,1014.94
2022-08-21T07:29:55.610Z,1014.95
2022-08-21T07:30:55.771Z,1014.93
2022-08-21T07:31:55.964Z,1014.95
2022-08-21T07:32:56.183Z,1014.95
2022-08-21T07:33:56.388Z,1014.93
2022-08-21T07:34:56.593Z,1014.89
2022-08-21T07:35:56.745Z,1014.93
2022-08-21T07:36:56.947Z,1014.90
2022-08-21T07:37:57.126Z,1014.90
2022-08-21T07:38:57.315Z,1014.91
2022-08-21T07:39:57.676Z,1014.91
2022-08-21T07:40:57.708Z,1014.93
2022-08-21T07:41:57.882Z,1014.93
2022-08-21T07:42:58.241Z,1014.96
2022-08-21T07:43:58.284Z,1014.91
2022-08-21T07:44:58.478Z,1014.91
2022-08-21T07:45:58.660Z,1014.92
2022-08-21T07:46:58.857Z,1014.94
2022-08-21T07:47:59.045Z,1014.93
2022-08-21T07:48:59.215Z,1014.96
2022-08-21T07:49:59.539Z,1014.94
2022-08-21T07:50:59.600Z,1014.89
2022-08-21T07:51:59.805Z,1014.90
2022-08-21T07:53:00.122Z,1014.92
2022-08-21T07:54:00.187Z,1014.93
2022-08-21T07:55:04.075Z,1014.93
2022-08-21T07:56:00.563Z,1014.98
2022-08-21T07:57:00.739Z,1014.92
2022-08-21T07:58:00.921Z,1015.01
2022-08-21T07:59:01.120Z,1014.98
2022-08-21T08:00:01.328Z,1014.99
2022-08-21T08:01:01.639Z,1015.02
2022-08-21T08:02:01.715Z,1015.03
2022-08-21T08:03:01.888Z,1014.99
2022-08-21T08:04:02.075Z,1015.00
2022-08-21T08:05:02.266Z,1014.95
2022-08-21T08:06:02.469Z,1015.01
2022-08-21T08:07:02.662Z,1014.96
2022-08-21T08:08:02.850Z,1014.97
2022-08-21T08:09:03.052Z,1014.94
2022-08-21T08:10:03.260Z,1014.96
2022-08-21T08:11:03.472Z,1014.99
2022-08-21T08:12:03.619Z,1015.01
2022-08-21T08:13:03.858Z,1014.93
2022-08-21T08:14:03.987Z,1014.96
2022-08-21T08:15:04.202Z,1014.98
2022-08-21T08:16:04.399Z,1015.05
2022-08-21T08:17:04.590Z,1015.00
2022-08-21T08:18:04.776Z,1014.96
2022-08-21T08:19:04.985Z,1014.99
2022-08-21T08:20:05.187Z,1014.97
2022-08-21T08:21:05.348Z,1014.94
2022-08-21T08:22:05.532Z,1014.99
2022-08-21T08:23:05.713Z,1014.96
2022-08-21T08:24:18.969Z,1014.85
2022-08-21T08:25:09.278Z,1014.87
2022-08-21T08:26:06.282Z,1014.89
2022-08-21T08:27:06.463Z,1014.88
2022-08-21T08:28:16.388Z,1014.87
2022-08-21T08:29:06.847Z,1014.87
2022-08-21T08:30:07.041Z,1014.84
2022-08-21T08:31:07.210Z,1014.81
2022-08-21T08:32:07.394Z,1014.80
2022-08-21T08:33:07.594Z,1014.84
2022-08-21T08:34:07.778Z,1014.83
2022-08-21T08:35:07.994Z,1014.82
2022-08-21T08:36:08.381Z,1014.87
2022-08-21T08:37:08.378Z,1014.82
2022-08-21T08:38:08.538Z,1014.86
2022-08-21T08:39:08.733Z,1014.80
2022-08-21T08:40:09.012Z,1014.82
2022-08-21T08:41:09.115Z,1014.84
2022-08-21T08:42:33.615Z,1014.85
2022-08-21T08:43:09.465Z,1014.83
2022-08-21T08:44:09.640Z,1014.81
2022-08-21T08:45:09.859Z,1014.79
2022-08-21T08:46:10.011Z,1014.77
2022-08-21T08:47:10.216Z,1014.82
2022-08-21T08:48:14.439Z,1014.74
2022-08-21T08:49:10.570Z,1014.75
2022-08-21T08:50:10.812Z,1014.75
2022-08-21T08:51:10.974Z,1014.75
2022-08-21T08:52:11.165Z,1014.78
2022-08-21T08:53:11.350Z,1014.80
2022-08-21T08:54:11.526Z,1014.77
2022-08-21T08:55:11.747Z,1014.77
2022-08-21T08:56:11.908Z,1014.76
2022-08-21T08:57:12.137Z,1014.79
2022-08-21T08:58:12.297Z,1014.77
2022-08-21T08:59:12.492Z,1014.74
2022-08-21T09:00:12.715Z,1014.77
2022-08-21T09:01:12.928Z,1014.78
2022-08-21T09:02:13.038Z,1014.70
2022-08-21T09:03:13.238Z,1014.69
2022-08-21T09:04:13.445Z,1014.66
2022-08-21T09:05:13.644Z,1014.70
2022-08-21T09:06:13.799Z,1014.71
2022-08-21T09:07:13.990Z,1014.76
2022-08-21T09:08:18.549Z,1014.73
2022-08-21T09:09:14.389Z,1014.70
2022-08-21T09:10:14.592Z,1014.70
2022-08-21T09:11:14.766Z,1014.71
2022-08-21T09:12:14.946Z,1014.69
2022-08-21T09:13:15.139Z,1014.70
2022-08-21T09:14:15.334Z,1014.70
2022-08-21T09:15:15.546Z,1014.74
2022-08-21T09:16:15.713Z,1014.70
2022-08-21T09:17:15.927Z,1014.68
2022-08-21T09:18:16.095Z,1014.73
2022-08-21T09:19:16.296Z,1014.71
2022-08-21T09:20:16.497Z,1014.77
2022-08-21T09:21:16.655Z,1014.76
2022-08-21T09:22:16.857Z,1014.70
2022-08-21T09:23:17.046Z,1014.71
2022-08-21T09:24:17.240Z,1014.73
2022-08-21T09:25:17.437Z,1014.67
2022-08-21T09:26:17.618Z,1014.67
2022-08-21T09:27:17.811Z,1014.67
2022-08-21T09:28:17.978Z,1014.71
2022-08-21T09:29:18.161Z,1014.73
2022-08-21T09:30:18.371Z,1014.68
2022-08-21T09:31:18.552Z,1014.70
2022-08-21T09:32:18.972Z,1014.61
2022-08-21T09:33:18.914Z,1014.65
2022-08-21T09:34:19.121Z,1014.59
2022-08-21T09:35:19.322Z,1014.64
2022-08-21T09:36:19.511Z,1014.65
2022-08-21T09:37:19.707Z,1014.69
2022-08-21T09:38:19.875Z,1014.70
2022-08-21T09:39:20.083Z,1014.66
2022-08-21T09:40:20.343Z,1014.62
2022-08-21T09:41:20.485Z,1014.63
2022-08-21T09:42:20.681Z,1014.64
2022-08-21T09:43:20.884Z,1014.66
2022-08-21T09:44:21.101Z,1014.62
2022-08-21T09:45:21.324Z,1014.64
2022-08-21T09:46:21.486Z,1014.62
2022-08-21T09:47:26.242Z,1014.63
2022-08-21T09:48:21.895Z,1014.65
2022-08-21T09:49:22.095Z,1014.72
2022-08-21T09:50:22.331Z,1014.67
2022-08-21T09:51:22.492Z,1014.65
2022-08-21T09:52:22.672Z,1014.49
2022-08-21T09:53:22.879Z,1014.62
2022-08-21T09:54:23.071Z,1014.73
2022-08-21T09:55:23.279Z,1014.70
2022-08-21T09:56:24.392Z,1014.70
2022-08-21T09:57:23.680Z,1014.73
2022-08-21T09:58:23.855Z,1014.53
2022-08-21T09:59:24.128Z,1014.57
2022-08-21T10:00:24.240Z,1014.59
2022-08-21T10:01:24.509Z,1014.55
2022-08-21T10:02:24.622Z,1014.57
2022-08-21T10:03:24.806Z,1014.46
2022-08-21T10:04:25.018Z,1014.51
2022-08-21T10:05:25.231Z,1014.66
2022-08-21T10:06:25.422Z,1014.65
2022-08-21T10:07:25.644Z,1014.61
2022-08-21T10:08:25.867Z,1014.65
2022-08-21T10:09:26.057Z,1014.63
2022-08-21T10:10:26.248Z,1014.69
2022-08-21T10:11:26.449Z,1014.65
2022-08-21T10:12:26.639Z,1014.67
2022-08-21T10:13:26.822Z,1014.64
2022-08-21T10:14:27.021Z,1014.59
2022-08-21T10:15:27.238Z,1014.66
2022-08-21T10:16:27.446Z,1014.70
2022-08-21T10:17:27.659Z,1014.61
2022-08-21T10:18:27.808Z,1014.66
2022-08-21T10:19:28.009Z,1014.57
2022-08-21T10:20:28.296Z,1014.53
2022-08-21T10:21:28.381Z,1014.54
2022-08-21T10:22:28.580Z,1014.52
2022-08-21T10:23:28.775Z,1014.49
2022-08-21T10:24:30.998Z,1014.51
2022-08-21T10:25:29.172Z,1014.56
2022-08-21T10:26:29.366Z,1014.54
2022-08-21T10:27:29.549Z,1014.46
2022-08-21T10:28:29.753Z,1014.45
2022-08-21T10:29:29.949Z,1014.41
2022-08-21T10:30:30.161Z,1014.38
2022-08-21T10:31:30.400Z,1014.46
2022-08-21T10:32:30.541Z,1014.36
2022-08-21T10:33:30.735Z,1014.41
2022-08-21T10:34:30.912Z,1014.35
2022-08-21T10:35:31.136Z,1014.27
2022-08-21T10:36:31.305Z,1014.30
2022-08-21T10:37:31.519Z,1014.31
2022-08-21T10:38:50.452Z,1014.25
2022-08-21T10:39:35.062Z,1014.26
2022-08-21T10:40:32.158Z,1014.29
2022-08-21T10:41:32.319Z,1014.28
2022-08-21T10:42:32.510Z,1014.23
2022-08-21T10:43:32.703Z,1014.27
2022-08-21T10:44:32.903Z,1014.17
2022-08-21T10:45:33.124Z,1014.27
2022-08-21T10:46:33.314Z,1014.07
2022-08-21T10:47:33.494Z,1014.14
2022-08-21T10:48:33.674Z,1014.21
2022-08-21T10:49:33.858Z,1014.36
2022-08-21T10:50:34.098Z,1014.37
2022-08-21T10:51:34.259Z,1014.40
2022-08-21T10:52:34.455Z,1014.46
2022-08-21T10:53:34.666Z,1014.38
2022-08-21T10:54:34.870Z,1014.33
2022-08-21T10:55:35.316Z,1014.29
2022-08-21T10:56:35.250Z,1014.18
2022-08-21T10:57:35.444Z,1014.28
2022-08-21T10:58:35.657Z,1014.30
2022-08-21T10:59:38.785Z,1014.35
2022-08-21T11:00:36.143Z,1014.48
2022-08-21T11:01:36.250Z,1014.39
2022-08-21T11:02:36.424Z,1014.22
2022-08-21T11:03:36.606Z,1014.27
2022-08-21T11:04:50.005Z,1014.45
2022-08-21T11:05:37.032Z,1014.48
2022-08-21T11:06:37.212Z,1014.44
2022-08-21T11:07:37.413Z,1014.47
2022-08-21T11:08:37.608Z,1014.44
2022-08-21T11:09:37.783Z,1014.24
2022-08-21T11:10:38.948Z,1014.17
2022-08-21T11:11:38.160Z,1014.23
2022-08-21T11:12:38.367Z,1014.26
2022-08-21T11:13:38.579Z,1014.34
2022-08-21T11:14:38.812Z,1014.30
2022-08-21T11:15:38.986Z,1014.33
2022-08-21T11:16:39.155Z,1014.34
2022-08-21T11:17:39.361Z,1014.36
2022-08-21T11:18:39.551Z,1014.37
2022-08-21T11:19:39.746Z,1014.54
2022-08-21T11:20:39.986Z,1014.49
2022-08-21T11:21:40.143Z,1014.59
2022-08-21T11:22:40.348Z,1014.61
2022-08-21T11:23:40.542Z,1014.53
2022-08-21T11:24:40.733Z,1014.52
2022-08-21T11:25:40.944Z,1014.56
2022-08-21T11:26:41.131Z,1014.56
2022-08-21T11:27:41.313Z,1014.54
2022-08-21T11:28:41.518Z,1014.54
2022-08-21T11:29:41.705Z,1014.49
2022-08-21T11:30:41.926Z,1014.51
2022-08-21T11:31:42.080Z,1014.53
2022-08-21T11:32:42.298Z,1014.51
2022-08-21T11:33:42.498Z,1014.54
2022-08-21T11:34:42.705Z,1014.54
2022-08-21T11:35:42.915Z,1014.55
2022-08-21T11:36:46.971Z,1014.52
2022-08-21T11:37:43.284Z,1014.49
2022-08-21T11:38:43.473Z,1014.45
2022-08-21T11:39:43.759Z,1014.47
2022-08-21T11:40:43.895Z,1014.50
2022-08-21T11:41:44.092Z,1014.44
2022-08-21T11:42:44.250Z,1014.44
2022-08-21T11:43:44.452Z,1014.41
2022-08-21T11:44:44.644Z,1014.49
2022-08-21T11:45:44.854Z,1014.48
2022-08-21T11:46:45.039Z,1014.26
2022-08-21T11:47:45.287Z,1014.30
2022-08-21T11:48:45.439Z,1014.32
2022-08-21T11:49:45.597Z,1014.34
2022-08-21T11:50:45.825Z,1014.48
2022-08-21T11:51:45.991Z,1014.53
2022-08-21T11:52:46.199Z,1014.55
2022-08-21T11:53:48.053Z,1014.51
2022-08-21T11:54:46.660Z,1014.50
2022-08-21T11:55:46.817Z,1014.57
2022-08-21T11:56:47.020Z,1014.52
2022-08-21T11:57:47.216Z,1014.54
2022-08-21T11:58:47.418Z,1014.54
2022-08-21T11:59:47.600Z,1014.47
2022-08-21T12:00:47.840Z,1014.41
2022-08-21T12:01:48.022Z,1014.51
2022-08-21T12:02:48.165Z,1014.50
2022-08-21T12:03:48.360Z,1014.47
2022-08-21T12:04:48.567Z,1014.42
2022-08-21T12:05:48.774Z,1014.47
2022-08-21T12:06:48.971Z,1014.42
2022-08-21T12:07:49.175Z,1014.38
2022-08-21T12:08:49.391Z,1014.39